Time;durP1;ratioP1;P1;durP2;ratioP2;P2;SDS_P1;SDS_P2;PMS_P1;PMS_P2;Temp;Humidity;BMP_temperature;BMP_pressure;BME280_temperature;BME280_humidity;BME280_pressure;Samples;Min_cycle;Max_cycle;Signal;HPM_P1;HPM_P2
2021/05/18 00:00:50;;;;;;;1.70;1.60;;;;;;;;;;5096270;28;20419;-62
2021/05/18 00:03:17;;;;;;;1.65;1.55;;;;;;;;;;5096342;28;20530;-62
2021/05/18 00:05:47;;;;;;;1.70;1.60;;;;;;;;;;5096373;28;20513;-62
2021/05/18 00:08:14;;;;;;;1.90;1.80;;;;;;;;;;5096524;28;20036;-62
2021/05/18 00:13:27;;;;;;;1.60;1.50;;;;;;;;;;5096308;28;20024;-62
2021/05/18 00:15:55;;;;;;;1.83;1.70;;;;;;;;;;5094798;28;20020;-62
2021/05/18 00:18:21;;;;;;;2.00;1.67;;;;;;;;;;5096165;28;20422;-62
2021/05/18 00:20:46;;;;;;;1.45;1.35;;;;;;;;;;5095949;28;20055;-62
2021/05/18 00:23:12;;;;;;;1.67;1.60;;;;;;;;;;5095759;28;20043;-62
2021/05/18 00:25:38;;;;;;;2.00;1.90;;;;;;;;;;5095754;28;20048;-62
2021/05/18 00:28:04;;;;;;;1.70;1.60;;;;;;;;;;5095733;28;20059;-62
2021/05/18 00:30:29;;;;;;;1.58;1.48;;;;;;;;;;5094549;28;20437;-62
2021/05/18 00:32:56;;;;;;;1.60;1.50;;;;;;;;;;5095640;28;20034;-62
2021/05/18 00:35:21;;;;;;;1.77;1.67;;;;;;;;;;5095462;28;20062;-62
2021/05/18 00:37:47;;;;;;;1.67;1.58;;;;;;;;;;5095445;28;20043;-63
2021/05/18 00:40:16;;;;;;;2.28;1.75;;;;;;;;;;5095470;28;20123;-62
2021/05/18 00:42:52;;;;;;;1.70;1.60;;;;;;;;;;5094047;28;20477;-62
2021/05/18 00:45:30;;;;;;;2.00;1.80;;;;;;;;;;5094561;28;20056;-62
2021/05/18 00:47:56;;;;;;;1.55;1.45;;;;;;;;;;5094553;28;20032;-61
2021/05/18 00:50:22;;;;;;;1.60;1.50;;;;;;;;;;5094220;28;20092;-61
2021/05/18 00:52:47;;;;;;;1.70;1.60;;;;;;;;;;5093956;28;20478;-62
2021/05/18 00:55:21;;;;;;;1.63;1.50;;;;;;;;;;5094214;28;20012;-62
2021/05/18 01:00:31;;;;;;;1.40;1.30;;;;;;;;;;5094227;28;20051;-62
2021/05/18 01:02:57;;;;;;;1.35;1.25;;;;;;;;;;5095180;28;20020;-61
2021/05/18 01:06:18;;;;;;;1.60;1.50;;;;;;;;;;5095151;28;20103;-61
2021/05/18 01:08:08;;;;;;;1.50;1.40;;;;;;;;;;5095286;28;20024;-61
2021/05/18 01:10:33;;;;;;;1.42;1.33;;;;;;;;;;5093930;28;20020;-61
2021/05/18 01:12:59;;;;;;;1.40;1.30;;;;;;;;;;5094906;28;20032;-61
2021/05/18 01:15:25;;;;;;;2.15;1.42;;;;;;;;;;5094979;28;20061;-62
2021/05/18 01:17:50;;;;;;;1.70;1.60;;;;;;;;;;5093604;28;20024;-61
2021/05/18 01:20:16;;;;;;;1.70;1.60;;;;;;;;;;5093467;28;20020;-61
2021/05/18 01:22:45;;;;;;;1.55;1.48;;;;;;;;;;5093695;28;20040;-62
2021/05/18 01:25:11;;;;;;;1.33;1.23;;;;;;;;;;5093632;28;20027;-62
2021/05/18 01:27:37;;;;;;;3.28;1.42;;;;;;;;;;5094909;28;20409;-62
2021/05/18 01:30:04;;;;;;;1.50;1.40;;;;;;;;;;5093316;28;20024;-61
2021/05/18 01:32:31;;;;;;;1.45;1.35;;;;;;;;;;5093311;28;20032;-62
2021/05/18 01:34:57;;;;;;;1.27;1.20;;;;;;;;;;5094112;28;20070;-61
2021/05/18 01:37:23;;;;;;;1.77;1.40;;;;;;;;;;5094507;28;20027;-61
2021/05/18 01:40:04;;;;;;;1.50;1.40;;;;;;;;;;5094231;28;20016;-62
2021/05/18 01:42:49;;;;;;;1.45;1.35;;;;;;;;;;5093390;28;20043;-61
2021/05/18 01:45:20;;;;;;;1.27;1.27;;;;;;;;;;5093242;28;20486;-61
2021/05/18 01:47:51;;;;;;;1.27;1.27;;;;;;;;;;5093077;28;20055;-61
2021/05/18 01:50:29;;;;;;;1.50;1.40;;;;;;;;;;5093488;28;20089;-62
2021/05/18 01:52:55;;;;;;;1.40;1.30;;;;;;;;;;5092949;28;20032;-61
2021/05/18 01:55:27;;;;;;;1.00;1.00;;;;;;;;;;5094149;28;20523;-61
2021/05/18 01:57:55;;;;;;;1.52;1.40;;;;;;;;;;5092907;28;20466;-61
2021/05/18 02:00:24;;;;;;;1.10;1.10;;;;;;;;;;5094316;28;20447;-61
2021/05/18 02:02:56;;;;;;;1.40;1.30;;;;;;;;;;5092899;28;20118;-62
2021/05/18 02:05:30;;;;;;;1.10;1.10;;;;;;;;;;5093002;28;20020;-61
2021/05/18 02:08:15;;;;;;;1.30;1.20;;;;;;;;;;5094364;28;20084;-61
2021/05/18 02:10:43;;;;;;;1.20;1.10;;;;;;;;;;5092481;28;20410;-61
2021/05/18 02:13:11;;;;;;;1.30;1.20;;;;;;;;;;5092577;28;20024;-61
2021/05/18 02:15:42;;;;;;;0.90;0.90;;;;;;;;;;5092597;28;20157;-62
2021/05/18 02:26:46;;;;;;;1.10;1.10;;;;;;;;;;5094064;28;20028;-62
2021/05/18 02:29:12;;;;;;;1.27;1.25;;;;;;;;;;5092355;28;20035;-61
2021/05/18 02:31:38;;;;;;;1.30;1.20;;;;;;;;;;5092186;28;20028;-61
2021/05/18 02:34:27;;;;;;;1.13;1.10;;;;;;;;;;5091520;28;20048;-61
2021/05/18 02:36:52;;;;;;;1.40;1.30;;;;;;;;;;5093965;28;20363;-61
2021/05/18 02:39:18;;;;;;;1.60;1.27;;;;;;;;;;5093525;28;20027;-61
2021/05/18 02:41:43;;;;;;;2.08;1.10;;;;;;;;;;5092288;28;20047;-61
2021/05/18 02:44:20;;;;;;;1.45;1.35;;;;;;;;;;5092097;28;20103;-61
2021/05/18 02:49:38;;;;;;;1.60;1.30;;;;;;;;;;5092552;28;20398;-61
2021/05/18 02:52:03;;;;;;;1.50;1.40;;;;;;;;;;5092129;28;20024;-61
2021/05/18 02:54:29;;;;;;;1.20;1.20;;;;;;;;;;5093423;28;20043;-62
2021/05/18 02:57:02;;;;;;;1.50;1.45;;;;;;;;;;5092016;28;20020;-61
2021/05/18 02:59:28;;;;;;;1.40;1.30;;;;;;;;;;5093145;28;20024;-61
2021/05/18 03:01:58;;;;;;;1.17;1.10;;;;;;;;;;5093532;28;20027;-61
2021/05/18 03:04:23;;;;;;;;;;;;;;;;;;5092443;28;20474;-62
2021/05/18 03:06:50;;;;;;;1.27;1.17;;;;;;;;;;5091876;28;19954;-61
2021/05/18 03:09:17;;;;;;;1.65;1.55;;;;;;;;;;5092046;28;20024;-62
2021/05/18 03:11:44;;;;;;;1.42;1.30;;;;;;;;;;5093434;28;20081;-61
2021/05/18 03:14:11;;;;;;;1.50;1.40;;;;;;;;;;5091991;28;20024;-62
2021/05/18 03:16:37;;;;;;;1.48;1.38;;;;;;;;;;5093269;28;20034;-62
2021/05/18 03:19:03;;;;;;;1.55;1.45;;;;;;;;;;5093149;28;20375;-61
2021/05/18 03:21:28;;;;;;;1.13;1.10;;;;;;;;;;5091839;28;20418;-61
2021/05/18 03:23:54;;;;;;;1.13;1.13;;;;;;;;;;5092997;28;20054;-61
2021/05/18 03:26:20;;;;;;;1.30;1.20;;;;;;;;;;5093146;28;20046;-61
2021/05/18 03:28:47;;;;;;;1.33;1.33;;;;;;;;;;5093231;28;20032;-62
2021/05/18 03:36:41;;;;;;;1.70;1.25;;;;;;;;;;5093333;28;20454;-61
2021/05/18 03:39:07;;;;;;;1.15;1.15;;;;;;;;;;5093009;28;20030;-61
2021/05/18 03:41:43;;;;;;;1.13;1.13;;;;;;;;;;5093076;28;20454;-62
2021/05/18 03:44:50;;;;;;;1.10;1.10;;;;;;;;;;5091837;28;20024;-62
2021/05/18 03:52:33;;;;;;;1.10;1.10;;;;;;;;;;5096934;28;20037;-62
2021/05/18 04:19:07;;;;;;;1.17;1.10;;;;;;;;;;5095980;28;20080;-61
2021/05/18 04:52:06;;;;;;;1.55;1.40;;;;;;;;;;5095401;28;20024;-61
2021/05/18 04:59:45;;;;;;;1.42;1.33;;;;;;;;;;5094369;28;20489;-61
2021/05/18 05:12:15;;;;;;;;;;;;;;;;;;5087027;28;20066;-61
2021/05/18 05:15:36;;;;;;;1.08;1.08;;;;;;;;;;5089481;28;20080;-61
2021/05/18 05:18:01;;;;;;;1.27;1.00;;;;;;;;;;5090809;28;20070;-61
2021/05/18 05:20:27;;;;;;;1.00;1.00;;;;;;;;;;5090580;28;20024;-61
2021/05/18 05:22:53;;;;;;;1.08;0.98;;;;;;;;;;5094321;28;20012;-62
2021/05/18 05:25:18;;;;;;;1.30;1.20;;;;;;;;;;5093387;28;20076;-62
2021/05/18 05:27:44;;;;;;;1.45;1.10;;;;;;;;;;5094800;28;20016;-62
2021/05/18 05:30:09;;;;;;;1.02;1.02;;;;;;;;;;5093338;28;20032;-62
2021/05/18 05:32:35;;;;;;;1.00;1.00;;;;;;;;;;5076525;28;20031;-61
2021/05/18 05:35:01;;;;;;;1.10;1.00;;;;;;;;;;5092776;28;20516;-62
2021/05/18 05:37:27;;;;;;;1.25;1.17;;;;;;;;;;5093725;28;20428;-61
2021/05/18 05:39:53;;;;;;;1.55;1.40;;;;;;;;;;5094545;28;20013;-61
2021/05/18 05:42:20;;;;;;;1.35;1.20;;;;;;;;;;5093175;28;20060;-61
2021/05/18 05:44:45;;;;;;;1.33;1.23;;;;;;;;;;5094149;28;20077;-62
2021/05/18 05:47:11;;;;;;;1.10;1.00;;;;;;;;;;5094199;28;20028;-62
2021/05/18 05:49:36;;;;;;;1.90;1.40;;;;;;;;;;5094340;28;20095;-62
2021/05/18 05:52:03;;;;;;;1.50;1.40;;;;;;;;;;5094142;28;20562;-62
2021/05/18 05:54:29;;;;;;;1.90;1.52;;;;;;;;;;5094017;28;20454;-61
2021/05/18 05:56:55;;;;;;;1.13;1.05;;;;;;;;;;5094135;28;20020;-62
2021/05/18 05:59:20;;;;;;;1.40;1.30;;;;;;;;;;5094119;28;20415;-61
2021/05/18 06:01:49;;;;;;;1.25;1.15;;;;;;;;;;5093998;28;20129;-61
2021/05/18 06:04:14;;;;;;;1.40;1.30;;;;;;;;;;5093906;28;20469;-62
2021/05/18 06:06:40;;;;;;;1.17;1.08;;;;;;;;;;5093863;28;20020;-61
2021/05/18 06:09:05;;;;;;;1.20;1.10;;;;;;;;;;5093305;28;20093;-61
2021/05/18 06:49:18;;;;;;;0.90;0.80;;;;;;;;;;5093603;28;20370;-61
2021/05/18 06:51:43;;;;;;;0.80;0.80;;;;;;;;;;5093171;28;20020;-61
2021/05/18 06:54:09;;;;;;;0.85;0.82;;;;;;;;;;5093280;28;20415;-61
2021/05/18 06:56:36;;;;;;;1.10;1.00;;;;;;;;;;5093308;28;20027;-61
2021/05/18 07:01:28;;;;;;;1.80;1.00;;;;;;;;;;5093005;28;20012;-62
2021/05/18 07:03:55;;;;;;;0.80;0.80;;;;;;;;;;5093033;28;20044;-62
2021/05/18 07:11:12;;;;;;;0.73;0.73;;;;;;;;;;5091988;28;20171;-61
2021/05/18 07:13:38;;;;;;;0.95;0.90;;;;;;;;;;5092837;28;20032;-62
2021/05/18 07:16:03;;;;;;;2.60;2.40;;;;;;;;;;5093037;28;20027;-62
2021/05/18 07:18:29;;;;;;;0.77;0.77;;;;;;;;;;5093042;28;20512;-61
2021/05/18 07:20:54;;;;;;;9.85;5.97;;;;;;;;;;5093744;28;20020;-61
2021/05/18 07:23:23;;;;;;;0.90;0.80;;;;;;;;;;5097114;28;20025;-62
2021/05/18 07:25:49;;;;;;;0.93;0.80;;;;;;;;;;5096928;28;20015;-62
2021/05/18 07:28:16;;;;;;;6.03;3.83;;;;;;;;;;5096650;28;20032;-62
2021/05/18 07:30:42;;;;;;;0.98;0.90;;;;;;;;;;5097074;28;20012;-61
2021/05/18 07:33:07;;;;;;;4.60;3.13;;;;;;;;;;5096755;28;20035;-61
2021/05/18 07:35:33;;;;;;;1.10;1.00;;;;;;;;;;5095505;28;20579;-61
2021/05/18 07:37:59;;;;;;;9.63;3.85;;;;;;;;;;5096784;28;20028;-62
2021/05/18 07:40:24;;;;;;;1.10;1.00;;;;;;;;;;5096658;28;20065;-61
2021/05/18 07:42:53;;;;;;;1.30;1.20;;;;;;;;;;5096584;28;20028;-61
2021/05/18 07:45:25;;;;;;;1.40;0.88;;;;;;;;;;5096523;28;20366;-61
2021/05/18 07:47:53;;;;;;;1.00;1.00;;;;;;;;;;5096544;28;20024;-61
2021/05/18 07:50:26;;;;;;;40.63;13.57;;;;;;;;;;5096520;28;20020;-61
2021/05/18 08:02:21;;;;;;;1.40;1.30;;;;;;;;;;5094755;28;20047;-61
2021/05/18 08:06:40;;;;;;;1.40;1.30;;;;;;;;;;5096677;28;20154;-61
2021/05/18 08:09:05;;;;;;;1.73;1.63;;;;;;;;;;5094796;28;20335;-61
2021/05/18 08:11:31;;;;;;;2.17;1.67;;;;;;;;;;5096180;28;20032;-62
2021/05/18 08:13:57;;;;;;;1.67;1.58;;;;;;;;;;5095932;28;20103;-61
2021/05/18 10:35:34;;;;;;;3.15;2.95;;;;;;;;;;5093224;28;20498;-61
2021/05/18 10:38:01;;;;;;;3.70;3.40;;;;;;;;;;5093493;28;20024;-61
2021/05/18 10:40:28;;;;;;;3.70;3.40;;;;;;;;;;5093361;28;20500;-61
2021/05/18 10:43:03;;;;;;;3.67;3.47;;;;;;;;;;5093473;28;20547;-61
2021/05/18 10:45:49;;;;;;;2.40;2.25;;;;;;;;;;5092897;28;20028;-62
2021/05/18 10:48:14;;;;;;;2.65;2.42;;;;;;;;;;5085702;28;20138;-62
2021/05/18 10:50:41;;;;;;;3.10;2.75;;;;;;;;;;5093407;28;20074;-62
2021/05/18 10:53:23;;;;;;;2.08;1.98;;;;;;;;;;5093708;28;20027;-61
2021/05/18 10:56:08;;;;;;;2.75;2.42;;;;;;;;;;5095615;28;20024;-64
2021/05/18 10:58:35;;;;;;;2.47;2.38;;;;;;;;;;5097665;28;20161;-64
2021/05/18 11:01:04;;;;;;;3.00;2.60;;;;;;;;;;5097801;28;20012;-64
2021/05/18 11:03:33;;;;;;;3.25;2.92;;;;;;;;;;5097712;28;20024;-64
2021/05/18 11:06:08;;;;;;;2.47;2.22;;;;;;;;;;5097393;28;20013;-65
2021/05/18 11:08:35;;;;;;;2.78;2.58;;;;;;;;;;5097534;28;20028;-64
2021/05/18 11:11:00;;;;;;;3.60;3.22;;;;;;;;;;5096106;28;20054;-64
2021/05/18 11:13:26;;;;;;;2.92;2.72;;;;;;;;;;5097625;28;20467;-64
2021/05/18 11:15:52;;;;;;;3.42;3.15;;;;;;;;;;5095882;28;20343;-64
2021/05/18 11:18:17;;;;;;;3.20;2.90;;;;;;;;;;5097195;28;20024;-64
2021/05/18 11:20:56;;;;;;;2.90;2.70;;;;;;;;;;5097378;28;20069;-64
2021/05/18 11:25:55;;;;;;;2.92;2.72;;;;;;;;;;5097205;28;20016;-64
2021/05/18 11:28:21;;;;;;;3.80;3.50;;;;;;;;;;5095501;28;20449;-64
2021/05/18 11:30:51;;;;;;;2.85;2.58;;;;;;;;;;5097041;28;20470;-64
2021/05/18 11:33:17;;;;;;;2.92;2.72;;;;;;;;;;5096853;28;20070;-64
2021/05/18 11:35:58;;;;;;;2.65;2.45;;;;;;;;;;5096648;28;20075;-64
2021/05/18 11:42:01;;;;;;;2.13;2.03;;;;;;;;;;5097321;28;20031;-64
2021/05/18 11:47:26;;;;;;;1.88;1.77;;;;;;;;;;5096337;28;20058;-64
2021/05/18 11:49:51;;;;;;;2.60;2.00;;;;;;;;;;5096363;28;20032;-65
2021/05/18 11:52:16;;;;;;;2.97;1.85;;;;;;;;;;5096284;28;20488;-64
2021/05/18 11:54:42;;;;;;;2.20;2.10;;;;;;;;;;5096332;28;20088;-65
2021/05/18 11:57:07;;;;;;;1.90;1.80;;;;;;;;;;5096277;28;20095;-64
2021/05/18 11:59:36;;;;;;;2.15;1.95;;;;;;;;;;5096260;28;20031;-64
2021/05/18 12:02:05;;;;;;;1.73;1.63;;;;;;;;;;5095678;28;20020;-65
2021/05/18 12:04:32;;;;;;;2.20;2.00;;;;;;;;;;5096115;28;20020;-65
2021/05/18 12:07:04;;;;;;;2.13;2.03;;;;;;;;;;5095110;28;20023;-65
2021/05/18 12:09:32;;;;;;;2.08;1.98;;;;;;;;;;5095967;28;20415;-65
2021/05/18 12:12:05;;;;;;;1.85;1.75;;;;;;;;;;5095965;28;20466;-64
2021/05/18 12:14:31;;;;;;;1.80;1.70;;;;;;;;;;5095907;28;20449;-64
2021/05/18 12:16:57;;;;;;;1.67;1.58;;;;;;;;;;5094565;28;20114;-64
2021/05/18 12:19:23;;;;;;;2.97;1.58;;;;;;;;;;5095748;28;20047;-64
2021/05/18 12:21:50;;;;;;;1.67;1.58;;;;;;;;;;5095751;28;20470;-65
2021/05/18 12:24:16;;;;;;;1.58;1.45;;;;;;;;;;5095832;28;20028;-64
2021/05/18 12:26:51;;;;;;;1.15;1.15;;;;;;;;;;5095682;28;20020;-64
2021/05/18 12:29:26;;;;;;;1.50;1.40;;;;;;;;;;5095623;28;20032;-64
2021/05/18 12:31:51;;;;;;;1.10;1.10;;;;;;;;;;5095494;28;20039;-64
2021/05/18 12:34:27;;;;;;;1.48;1.38;;;;;;;;;;5095053;28;20044;-65
2021/05/18 12:36:53;;;;;;;1.85;1.75;;;;;;;;;;5095719;28;20062;-64
2021/05/18 12:39:18;;;;;;;1.80;1.70;;;;;;;;;;5095489;28;20024;-64
2021/05/18 12:41:55;;;;;;;1.50;1.40;;;;;;;;;;5095356;28;20028;-65
2021/05/18 12:44:22;;;;;;;1.52;1.42;;;;;;;;;;5095419;28;20389;-64
2021/05/18 12:47:06;;;;;;;1.42;1.33;;;;;;;;;;5095417;28;20111;-64
2021/05/18 12:49:32;;;;;;;1.60;1.20;;;;;;;;;;5095392;28;20040;-65
2021/05/18 12:52:00;;;;;;;1.40;1.33;;;;;;;;;;5095234;28;20020;-64
2021/05/18 12:54:35;;;;;;;1.63;1.38;;;;;;;;;;5095295;28;20032;-65
2021/05/18 12:57:01;;;;;;;1.60;1.00;;;;;;;;;;5094762;28;20085;-64
2021/05/18 12:59:27;;;;;;;1.85;1.05;;;;;;;;;;5095210;28;20419;-64
2021/05/18 13:01:52;;;;;;;1.50;1.00;;;;;;;;;;5095135;28;20031;-64
2021/05/18 13:04:19;;;;;;;2.40;1.17;;;;;;;;;;5093732;28;20024;-64
2021/05/18 13:06:45;;;;;;;1.20;1.10;;;;;;;;;;5094831;28;20497;-64
2021/05/18 13:09:26;;;;;;;1.90;0.90;;;;;;;;;;5094842;28;20028;-64
2021/05/18 13:12:15;;;;;;;0.80;0.80;;;;;;;;;;5094883;28;20104;-64
2021/05/18 13:14:57;;;;;;;0.98;0.70;;;;;;;;;;5093734;28;20111;-64
2021/05/18 13:17:24;;;;;;;1.33;1.00;;;;;;;;;;5094622;28;20118;-64
2021/05/18 13:20:10;;;;;;;0.90;0.90;;;;;;;;;;5094624;28;20013;-64
2021/05/18 13:22:38;;;;;;;0.80;0.80;;;;;;;;;;5094710;28;20025;-64
2021/05/18 13:27:49;;;;;;;1.10;0.68;;;;;;;;;;5094674;28;20028;-64
2021/05/18 13:30:15;;;;;;;0.90;0.90;;;;;;;;;;5094357;28;20107;-64
2021/05/18 13:32:40;;;;;;;0.93;0.90;;;;;;;;;;5094263;28;20120;-64
2021/05/18 13:35:06;;;;;;;1.50;0.93;;;;;;;;;;5093887;28;20109;-64
2021/05/18 13:37:31;;;;;;;1.00;0.85;;;;;;;;;;5094320;28;20039;-64
2021/05/18 13:39:57;;;;;;;4.13;1.35;;;;;;;;;;5094364;28;20024;-64
2021/05/18 13:42:22;;;;;;;0.80;0.80;;;;;;;;;;5094330;28;20047;-64
2021/05/18 13:44:48;;;;;;;1.85;0.85;;;;;;;;;;5094203;28;20486;-64
2021/05/18 13:47:13;;;;;;;1.63;0.90;;;;;;;;;;5094098;28;20035;-64
2021/05/18 13:49:43;;;;;;;1.15;0.85;;;;;;;;;;5093952;28;20062;-65
2021/05/18 13:52:08;;;;;;;1.02;0.80;;;;;;;;;;5093730;28;20117;-64
2021/05/18 13:54:36;;;;;;;0.70;0.70;;;;;;;;;;5094160;28;20032;-64
2021/05/18 13:57:01;;;;;;;3.72;1.00;;;;;;;;;;5093857;28;20020;-64
2021/05/18 13:59:27;;;;;;;1.45;0.90;;;;;;;;;;5094286;28;20039;-64
2021/05/18 14:01:53;;;;;;;3.00;1.00;;;;;;;;;;5094102;28;20023;-64
2021/05/18 14:04:18;;;;;;;1.27;1.17;;;;;;;;;;5094143;28;20106;-64
2021/05/18 14:07:01;;;;;;;0.80;0.80;;;;;;;;;;5092878;28;20016;-64
2021/05/18 14:09:29;;;;;;;0.90;0.90;;;;;;;;;;5092638;28;20055;-64
2021/05/18 14:11:55;;;;;;;1.17;0.90;;;;;;;;;;5093839;28;20494;-65
2021/05/18 14:14:20;;;;;;;1.30;1.00;;;;;;;;;;5093944;28;20124;-64
2021/05/18 14:16:46;;;;;;;0.98;0.95;;;;;;;;;;5091893;28;20024;-65
2021/05/18 14:19:11;;;;;;;1.88;1.40;;;;;;;;;;5092491;28;20024;-64
2021/05/18 14:21:38;;;;;;;1.83;1.20;;;;;;;;;;5093763;28;20019;-65
2021/05/18 14:24:20;;;;;;;1.35;1.25;;;;;;;;;;5093919;28;20020;-64
2021/05/18 14:26:46;;;;;;;0.88;0.88;;;;;;;;;;5091660;28;20111;-66
2021/05/18 14:29:12;;;;;;;1.75;0.85;;;;;;;;;;5092168;28;20099;-65
2021/05/18 14:31:38;;;;;;;1.13;1.05;;;;;;;;;;5093444;28;20028;-65
2021/05/18 14:34:04;;;;;;;1.40;0.80;;;;;;;;;;5093555;28;20020;-65
2021/05/18 14:36:30;;;;;;;1.15;0.70;;;;;;;;;;5093632;28;20093;-64
2021/05/18 14:38:55;;;;;;;2.78;0.90;;;;;;;;;;5093725;28;20396;-64
2021/05/18 14:44:13;;;;;;;1.10;1.00;;;;;;;;;;5093644;28;20027;-64
2021/05/18 14:46:49;;;;;;;2.03;1.05;;;;;;;;;;5093598;28;20032;-64
2021/05/18 14:57:14;;;;;;;1.73;1.00;;;;;;;;;;5093588;28;20028;-64
2021/05/18 14:59:39;;;;;;;1.80;0.98;;;;;;;;;;5093372;28;20102;-64
2021/05/18 15:02:05;;;;;;;0.98;0.88;;;;;;;;;;5093673;28;20103;-64
2021/05/18 15:04:31;;;;;;;1.42;0.70;;;;;;;;;;5093248;28;20135;-69
2021/05/18 15:06:57;;;;;;;1.00;0.75;;;;;;;;;;5092470;28;20039;-69
2021/05/18 15:09:22;;;;;;;0.65;0.65;;;;;;;;;;5092965;28;20022;-70
2021/05/18 15:11:48;;;;;;;1.00;0.88;;;;;;;;;;5090606;28;20039;-69
2021/05/18 15:14:13;;;;;;;2.50;1.20;;;;;;;;;;5091811;28;20024;-69
2021/05/18 15:16:39;;;;;;;0.95;0.95;;;;;;;;;;5091781;28;20089;-69
2021/05/18 15:19:08;;;;;;;1.33;0.98;;;;;;;;;;5093012;28;20511;-69
2021/05/18 15:21:34;;;;;;;1.35;1.02;;;;;;;;;;5092437;28;20032;-69
2021/05/18 15:24:00;;;;;;;1.45;1.25;;;;;;;;;;5091669;28;20427;-69
2021/05/18 15:26:26;;;;;;;1.38;0.82;;;;;;;;;;5091305;28;20028;-69
2021/05/18 15:28:51;;;;;;;3.13;0.88;;;;;;;;;;5091971;28;20020;-70
2021/05/18 15:31:18;;;;;;;1.35;1.05;;;;;;;;;;5091939;28;20028;-70
2021/05/18 15:33:44;;;;;;;0.70;0.70;;;;;;;;;;5091429;28;20012;-70
2021/05/18 15:36:09;;;;;;;1.70;0.70;;;;;;;;;;5090988;28;20131;-70
2021/05/18 15:38:38;;;;;;;0.95;0.70;;;;;;;;;;5092604;28;20032;-70
2021/05/18 15:41:07;;;;;;;0.77;0.70;;;;;;;;;;5092548;28;20024;-70
2021/05/18 15:43:33;;;;;;;0.93;0.80;;;;;;;;;;5095311;28;20499;-63
2021/05/18 15:45:58;;;;;;;1.17;0.60;;;;;;;;;;5096609;28;20069;-63
2021/05/18 15:48:24;;;;;;;0.60;0.60;;;;;;;;;;5096514;28;20016;-63
2021/05/18 15:50:50;;;;;;;0.90;0.70;;;;;;;;;;5096081;28;20035;-63
2021/05/18 15:53:15;;;;;;;0.60;0.60;;;;;;;;;;5096523;28;20469;-63
2021/05/18 15:55:40;;;;;;;3.30;0.80;;;;;;;;;;5096475;28;20020;-63
2021/05/18 15:58:06;;;;;;;1.05;0.90;;;;;;;;;;5096476;28;20069;-63
2021/05/18 16:00:31;;;;;;;0.80;0.80;;;;;;;;;;5096568;28;20024;-63
2021/05/18 16:02:58;;;;;;;0.60;0.60;;;;;;;;;;5095041;28;20024;-63
2021/05/18 16:05:23;;;;;;;1.13;0.70;;;;;;;;;;5096462;28;20081;-63
2021/05/18 16:08:05;;;;;;;0.90;0.85;;;;;;;;;;5096364;28;20016;-63
2021/05/18 16:10:31;;;;;;;1.33;0.80;;;;;;;;;;5096319;28;20107;-63
2021/05/18 16:12:57;;;;;;;1.35;0.80;;;;;;;;;;5095892;28;20103;-66
2021/05/18 16:15:22;;;;;;;0.90;0.90;;;;;;;;;;5095405;28;20031;-63
2021/05/18 16:17:48;;;;;;;2.60;1.00;;;;;;;;;;5095240;28;20024;-63
2021/05/18 16:20:14;;;;;;;1.00;0.90;;;;;;;;;;5093522;28;20020;-63
2021/05/18 16:22:40;;;;;;;2.60;1.00;;;;;;;;;;5077031;28;20039;-70
2021/05/18 16:25:06;;;;;;;2.67;1.55;;;;;;;;;;5095592;28;20083;-63
2021/05/18 16:27:31;;;;;;;3.45;1.70;;;;;;;;;;5095460;28;20074;-63
2021/05/18 16:29:57;;;;;;;1.92;1.83;;;;;;;;;;5095902;28;20393;-63
2021/05/18 16:32:22;;;;;;;3.42;1.70;;;;;;;;;;5095784;28;20027;-63
2021/05/18 16:34:48;;;;;;;1.58;1.48;;;;;;;;;;5095226;28;20082;-63
2021/05/18 16:37:14;;;;;;;2.22;1.60;;;;;;;;;;5094746;28;20522;-63
2021/05/18 16:39:40;;;;;;;1.42;1.27;;;;;;;;;;5094462;28;20016;-63
2021/05/18 16:42:05;;;;;;;1.85;1.50;;;;;;;;;;5094355;28;20031;-62
2021/05/18 16:44:31;;;;;;;3.08;1.55;;;;;;;;;;5094419;28;20371;-63
2021/05/18 16:46:57;;;;;;;1.30;1.20;;;;;;;;;;5095467;28;20032;-62
2021/05/18 16:49:22;;;;;;;1.25;1.23;;;;;;;;;;5095319;28;20020;-63
2021/05/18 16:51:48;;;;;;;1.88;1.20;;;;;;;;;;5095354;28;20024;-63
2021/05/18 16:54:15;;;;;;;2.17;1.50;;;;;;;;;;5094895;28;20103;-63
2021/05/18 16:56:41;;;;;;;2.00;1.50;;;;;;;;;;5094063;28;20474;-63
2021/05/18 16:59:07;;;;;;;1.60;1.50;;;;;;;;;;5095333;28;20107;-63
2021/05/18 17:01:33;;;;;;;1.80;1.70;;;;;;;;;;5095240;28;20028;-63
2021/05/18 17:03:58;;;;;;;1.92;1.80;;;;;;;;;;5095168;28;20103;-63
2021/05/18 17:06:24;;;;;;;2.40;1.70;;;;;;;;;;5095105;28;20055;-63
2021/05/18 17:08:49;;;;;;;2.50;1.92;;;;;;;;;;5094876;28;20438;-63
2021/05/18 17:11:15;;;;;;;3.47;1.88;;;;;;;;;;5095135;28;20032;-63
2021/05/18 17:13:41;;;;;;;2.78;1.90;;;;;;;;;;5095068;28;20103;-62
2021/05/18 17:16:07;;;;;;;2.60;1.88;;;;;;;;;;5094408;28;20055;-62
2021/05/18 17:18:33;;;;;;;2.17;1.85;;;;;;;;;;5094654;28;20012;-63
2021/05/18 17:20:58;;;;;;;1.88;1.77;;;;;;;;;;5094231;28;20024;-63
2021/05/18 17:23:24;;;;;;;1.95;1.77;;;;;;;;;;5094628;28;20027;-63
2021/05/18 17:25:49;;;;;;;3.05;1.80;;;;;;;;;;5094546;28;20501;-63
2021/05/18 17:28:15;;;;;;;3.17;1.90;;;;;;;;;;5094829;28;20020;-63
2021/05/18 17:30:41;;;;;;;2.75;1.98;;;;;;;;;;5093374;28;20047;-63
2021/05/18 17:33:09;;;;;;;5.85;2.25;;;;;;;;;;5094465;28;20032;-63
2021/05/18 17:35:34;;;;;;;2.97;1.95;;;;;;;;;;5094018;28;20486;-68
2021/05/18 17:38:00;;;;;;;2.83;1.95;;;;;;;;;;5094536;28;20034;-68
2021/05/18 17:40:25;;;;;;;2.05;1.90;;;;;;;;;;5094072;28;20020;-69
2021/05/18 17:42:51;;;;;;;4.63;2.30;;;;;;;;;;5093051;28;20059;-69
2021/05/18 17:45:16;;;;;;;4.13;2.20;;;;;;;;;;5094611;28;20055;-69
2021/05/18 17:47:42;;;;;;;2.60;2.00;;;;;;;;;;5094646;28;20015;-69
2021/05/18 17:50:09;;;;;;;2.47;2.28;;;;;;;;;;5094641;28;20039;-68
2021/05/18 17:52:34;;;;;;;2.25;2.05;;;;;;;;;;5094275;28;20028;-68
2021/05/18 17:55:00;;;;;;;2.53;2.33;;;;;;;;;;5094435;28;20020;-70
2021/05/18 17:57:25;;;;;;;3.75;2.38;;;;;;;;;;5094323;28;20107;-63
2021/05/18 17:59:50;;;;;;;2.33;2.15;;;;;;;;;;5092899;28;20028;-63
2021/05/18 18:02:18;;;;;;;2.63;2.40;;;;;;;;;;5092478;28;20023;-63
2021/05/18 18:04:44;;;;;;;2.28;2.08;;;;;;;;;;5091807;28;20020;-63
2021/05/18 18:07:09;;;;;;;2.28;1.88;;;;;;;;;;5092725;28;20420;-62
2021/05/18 18:09:43;;;;;;;4.30;2.70;;;;;;;;;;5092998;28;20044;-62
2021/05/18 18:12:10;;;;;;;2.58;2.17;;;;;;;;;;5073683;28;20433;-63
2021/05/18 18:14:36;;;;;;;2.85;2.53;;;;;;;;;;5073436;28;20112;-62
2021/05/18 18:17:07;;;;;;;3.60;2.88;;;;;;;;;;5073525;28;20068;-68
2021/05/18 18:19:34;;;;;;;;;;;;;;;;;;5072680;28;20021;-68
2021/05/18 18:22:00;;;;;;;2.15;1.95;;;;;;;;;;5073775;28;19960;-68
2021/05/18 18:24:25;;;;;;;2.60;2.35;;;;;;;;;;5073721;28;20115;-69
2021/05/18 18:26:51;;;;;;;2.80;2.40;;;;;;;;;;5073681;28;20465;-69
2021/05/18 18:29:16;;;;;;;2.42;2.28;;;;;;;;;;5073538;28;20039;-68
2021/05/18 18:31:42;;;;;;;3.38;2.10;;;;;;;;;;5073655;28;20524;-68
2021/05/18 18:34:08;;;;;;;2.15;1.98;;;;;;;;;;5073406;28;20397;-68
2021/05/18 18:36:35;;;;;;;4.15;2.58;;;;;;;;;;5073919;28;20030;-69
2021/05/18 18:39:01;;;;;;;7.57;5.43;;;;;;;;;;5073838;28;20024;-69
2021/05/18 18:41:26;;;;;;;10.13;6.38;;;;;;;;;;5073782;28;20017;-69
2021/05/18 18:43:53;;;;;;;15.77;7.95;;;;;;;;;;5073586;28;20021;-68
2021/05/18 18:46:18;;;;;;;35.72;13.07;;;;;;;;;;5073249;28;20027;-69
2021/05/18 18:48:44;;;;;;;31.38;11.43;;;;;;;;;;5073606;28;20021;-68
2021/05/18 18:51:16;;;;;;;15.93;7.07;;;;;;;;;;5073490;28;20021;-68
2021/05/18 18:53:45;;;;;;;9.57;5.63;;;;;;;;;;5073505;28;20033;-69
2021/05/18 18:56:13;;;;;;;8.85;5.63;;;;;;;;;;5073310;28;20019;-69
2021/05/18 18:58:39;;;;;;;12.30;5.32;;;;;;;;;;5073589;28;20028;-68
2021/05/18 19:01:06;;;;;;;9.50;5.82;;;;;;;;;;5073184;28;20031;-69
2021/05/18 19:03:37;;;;;;;11.48;6.47;;;;;;;;;;5072149;28;20035;-69
2021/05/18 19:13:57;;;;;;;11.10;6.22;;;;;;;;;;5066515;28;20199;-69
2021/05/18 19:16:22;;;;;;;8.45;5.70;;;;;;;;;;5071720;28;20028;-69
2021/05/18 19:18:49;;;;;;;7.95;5.82;;;;;;;;;;5073409;28;20379;-69
2021/05/18 19:21:15;;;;;;;14.07;7.55;;;;;;;;;;5073637;28;20459;-69
2021/05/18 19:23:40;;;;;;;16.85;8.25;;;;;;;;;;5074455;28;20046;-69
2021/05/18 19:26:06;;;;;;;15.40;8.40;;;;;;;;;;5073538;28;20025;-69
2021/05/18 19:28:33;;;;;;;13.63;7.80;;;;;;;;;;5074199;28;20039;-69
2021/05/18 19:30:59;;;;;;;21.52;10.38;;;;;;;;;;5073639;28;20031;-69
2021/05/18 19:33:26;;;;;;;22.45;11.48;;;;;;;;;;5074265;28;20028;-69
2021/05/18 19:36:21;;;;;;;22.30;11.27;;;;;;;;;;5088600;28;20447;-69
2021/05/18 19:49:45;;;;;;;19.58;10.57;;;;;;;;;;5093547;28;20039;-69
2021/05/18 19:52:11;;;;;;;20.55;11.13;;;;;;;;;;5090247;28;20034;-69
2021/05/18 19:54:38;;;;;;;20.48;11.02;;;;;;;;;;5092319;28;20442;-69
2021/05/18 20:21:26;;;;;;;14.73;8.90;;;;;;;;;;5096228;28;20028;-68
2021/05/18 20:23:52;;;;;;;21.38;11.02;;;;;;;;;;5096055;28;20028;-69
2021/05/18 20:26:17;;;;;;;24.45;12.10;;;;;;;;;;5096281;28;20412;-69
2021/05/18 20:28:43;;;;;;;19.73;10.68;;;;;;;;;;5095432;28;20028;-69
2021/05/18 20:31:08;;;;;;;23.05;11.23;;;;;;;;;;5094931;28;20024;-69
2021/05/18 20:38:32;;;;;;;18.67;10.75;;;;;;;;;;5094182;28;20055;-68
2021/05/18 20:41:32;;;;;;;21.83;12.27;;;;;;;;;;5094470;28;20472;-69
2021/05/18 20:44:00;;;;;;;20.33;11.98;;;;;;;;;;5094241;28;20076;-69
2021/05/18 20:46:27;;;;;;;16.95;11.02;;;;;;;;;;5091497;28;20016;-68
2021/05/18 20:48:52;;;;;;;17.98;11.48;;;;;;;;;;5094240;28;20494;-70
2021/05/18 20:51:18;;;;;;;20.08;11.38;;;;;;;;;;5095321;28;20032;-69